createdAt,value
2023-09-23T00:01:27.635Z,11.54
2023-09-23T00:05:33.424Z,11.58
2023-09-23T00:09:37.704Z,11.56
2023-09-23T00:13:43.530Z,11.55
2023-09-23T00:17:48.099Z,11.53
2023-09-23T00:21:51.947Z,11.54
2023-09-23T00:25:55.335Z,11.50
2023-09-23T00:30:00.315Z,11.40
2023-09-23T00:34:03.968Z,11.54
2023-09-23T00:38:08.200Z,11.61
2023-09-23T00:42:13.526Z,11.67
2023-09-23T00:46:22.997Z,11.70
2023-09-23T00:50:27.004Z,11.68
2023-09-23T00:54:32.986Z,11.62
2023-09-23T00:58:37.789Z,11.63
2023-09-23T01:02:42.624Z,11.55
2023-09-23T01:06:46.145Z,11.55
2023-09-23T01:10:49.724Z,11.51
2023-09-23T01:14:53.664Z,11.47
2023-09-23T01:19:00.187Z,11.38
2023-09-23T01:23:06.586Z,11.40
2023-09-23T01:27:10.017Z,11.38
2023-09-23T01:31:13.975Z,11.33
2023-09-23T01:35:18.157Z,11.21
2023-09-23T01:39:24.323Z,11.20
2023-09-23T01:43:28.229Z,11.26
2023-09-23T01:47:31.957Z,11.17
2023-09-23T01:51:35.235Z,11.11
2023-09-23T01:55:39.796Z,11.12
2023-09-23T01:59:42.948Z,11.07
2023-09-23T02:03:46.774Z,11.12
2023-09-23T02:07:51.883Z,11.08
2023-09-23T02:11:56.642Z,11.13
2023-09-23T02:16:00.887Z,11.14
2023-09-23T02:20:17.735Z,11.09
2023-09-23T02:24:20.964Z,11.12
2023-09-23T02:28:25.357Z,11.09
2023-09-23T02:32:29.413Z,11.17
2023-09-23T02:36:32.703Z,11.21
2023-09-23T02:40:35.916Z,11.14
2023-09-23T02:44:41.720Z,11.14
2023-09-23T02:48:48.403Z,11.06
2023-09-23T02:52:51.848Z,11.15
2023-09-23T02:56:55.266Z,11.20
2023-09-23T03:01:00.505Z,11.17
2023-09-23T03:05:08.949Z,11.20
2023-09-23T03:09:12.137Z,11.15
2023-09-23T03:13:15.202Z,11.14
2023-09-23T03:17:23.480Z,11.13
2023-09-23T03:21:27.696Z,11.14
2023-09-23T03:25:31.650Z,11.08
2023-09-23T03:29:37.000Z,11.09
2023-09-23T03:33:42.468Z,11.09
2023-09-23T03:37:49.041Z,11.12
2023-09-23T03:41:52.066Z,11.10
2023-09-23T03:45:55.164Z,11.08
2023-09-23T03:49:59.500Z,11.08
2023-09-23T03:54:02.676Z,11.10
2023-09-23T03:58:05.900Z,11.10
2023-09-23T04:02:09.288Z,11.09
2023-09-23T04:06:23.220Z,11.08
2023-09-23T04:10:28.382Z,11.14
2023-09-23T04:14:31.375Z,11.13
2023-09-23T04:18:34.560Z,11.19
2023-09-23T04:22:39.396Z,11.18
2023-09-23T04:26:42.646Z,11.17
2023-09-23T04:30:45.694Z,11.19
2023-09-23T04:34:48.835Z,11.26
2023-09-23T04:38:53.160Z,11.12
2023-09-23T04:42:56.096Z,11.12
2023-09-23T04:46:59.240Z,11.12
2023-09-23T04:51:02.366Z,11.07
2023-09-23T04:55:08.186Z,11.01
2023-09-23T04:59:11.211Z,10.96
2023-09-23T05:03:14.223Z,11.03
2023-09-23T05:07:17.716Z,10.95
2023-09-23T05:11:22.001Z,10.96
2023-09-23T05:15:25.995Z,11.00
2023-09-23T05:19:29.409Z,10.95
2023-09-23T05:23:32.485Z,10.82
2023-09-23T05:27:36.828Z,10.79
2023-09-23T05:31:39.956Z,10.88
2023-09-23T05:35:42.942Z,10.79
2023-09-23T05:39:47.395Z,10.84
2023-09-23T05:43:52.997Z,10.85
2023-09-23T05:47:56.166Z,10.85
2023-09-23T05:51:59.575Z,10.91
2023-09-23T05:56:02.716Z,10.93
2023-09-23T06:00:09.504Z,10.95
2023-09-23T06:04:12.784Z,10.95
2023-09-23T06:08:15.755Z,10.99
2023-09-23T06:12:18.703Z,11.08
2023-09-23T06:16:23.708Z,11.10
2023-09-23T06:20:26.909Z,11.16
2023-09-23T06:24:30.099Z,11.19
2023-09-23T06:28:33.489Z,11.26
2023-09-23T06:32:38.274Z,11.33
2023-09-23T06:36:41.348Z,11.40
2023-09-23T06:40:44.638Z,11.48
2023-09-23T06:44:47.637Z,11.58
2023-09-23T06:48:52.031Z,11.64
2023-09-23T06:52:55.008Z,11.73
2023-09-23T06:56:58.051Z,11.85
2023-09-23T07:01:01.077Z,11.91
2023-09-23T07:05:05.908Z,12.03
2023-09-23T07:09:10.447Z,12.10
2023-09-23T07:13:13.634Z,12.27
2023-09-23T07:17:18.517Z,12.42
2023-09-23T07:21:22.829Z,12.61
2023-09-23T07:25:26.046Z,12.68
2023-09-23T07:29:29.598Z,12.91
2023-09-23T07:33:32.684Z,13.07
2023-09-23T07:37:37.252Z,13.49
2023-09-23T07:41:40.824Z,13.54
2023-09-23T07:45:43.853Z,13.37
2023-09-23T07:49:47.029Z,13.67
2023-09-23T07:53:53.072Z,13.97
2023-09-23T07:57:56.530Z,14.17
2023-09-23T08:02:01.132Z,14.00
2023-09-23T08:06:05.031Z,13.64
2023-09-23T08:10:09.962Z,14.14
2023-09-23T08:14:13.128Z,14.56
2023-09-23T08:18:16.384Z,14.75
2023-09-23T08:22:19.482Z,14.89
2023-09-23T08:26:23.906Z,15.22
2023-09-23T08:30:27.362Z,14.81
2023-09-23T08:34:30.270Z,15.20
2023-09-23T08:38:33.473Z,15.30
2023-09-23T08:42:38.210Z,15.51
2023-09-23T08:46:53.026Z,15.70
2023-09-23T08:50:58.403Z,14.80
2023-09-23T08:55:02.325Z,14.50
2023-09-23T08:59:06.784Z,14.65
2023-09-23T09:03:09.957Z,14.83
2023-09-23T09:07:13.924Z,14.58
2023-09-23T09:11:22.597Z,14.32
2023-09-23T09:15:28.392Z,14.57
2023-09-23T09:19:34.348Z,14.42
2023-09-23T09:23:40.828Z,14.72
2023-09-23T09:27:46.269Z,16.01
2023-09-23T09:31:52.856Z,16.29
2023-09-23T09:35:56.607Z,15.72
2023-09-23T09:40:00.591Z,15.40
2023-09-23T09:44:05.893Z,15.33
2023-09-23T09:48:10.753Z,15.83
2023-09-23T09:52:15.323Z,15.43
2023-09-23T09:56:20.039Z,15.04
2023-09-23T10:00:43.679Z,15.32
2023-09-23T10:04:50.391Z,15.22
2023-09-23T10:08:55.559Z,16.12
2023-09-23T10:13:00.242Z,16.66
2023-09-23T10:17:09.259Z,16.26
2023-09-23T10:21:25.281Z,17.30
2023-09-23T10:25:43.958Z,16.80
2023-09-23T10:29:49.144Z,16.05
2023-09-23T10:33:52.908Z,16.23
2023-09-23T10:37:57.726Z,16.41
2023-09-23T10:42:00.721Z,16.97
2023-09-23T10:46:04.079Z,16.34
2023-09-23T10:50:09.906Z,15.94
2023-09-23T10:54:16.615Z,16.67
2023-09-23T10:58:20.144Z,16.76
2023-09-23T11:02:24.221Z,16.51
2023-09-23T11:06:29.814Z,16.00
2023-09-23T11:10:36.312Z,16.15
2023-09-23T11:14:39.638Z,16.65
2023-09-23T11:18:43.784Z,15.95
2023-09-23T11:22:51.493Z,16.34
2023-09-23T11:26:55.670Z,16.54
2023-09-23T11:30:58.637Z,16.84
2023-09-23T11:35:04.084Z,16.42
2023-09-23T11:39:07.957Z,17.05
2023-09-23T11:43:12.561Z,16.63
2023-09-23T11:47:15.732Z,16.84
2023-09-23T11:51:20.351Z,16.99
2023-09-23T11:55:25.207Z,16.73
2023-09-23T11:59:29.961Z,18.48
2023-09-23T12:03:33.689Z,18.86
2023-09-23T12:07:38.269Z,18.71
2023-09-23T12:11:41.372Z,18.68
2023-09-23T12:15:46.169Z,18.20
2023-09-23T12:19:49.411Z,17.14
2023-09-23T12:23:56.557Z,16.65
2023-09-23T12:27:59.607Z,16.34
2023-09-23T12:32:04.343Z,16.58
2023-09-23T12:36:07.573Z,17.58
2023-09-23T12:40:11.564Z,19.18
2023-09-23T12:44:14.810Z,19.34
2023-09-23T12:48:19.637Z,18.33
2023-09-23T12:52:24.540Z,18.34
2023-09-23T12:56:31.357Z,17.84
2023-09-23T13:00:34.662Z,18.11
2023-09-23T13:04:39.036Z,17.99
2023-09-23T13:08:42.170Z,17.52
2023-09-23T13:12:45.597Z,17.53
2023-09-23T13:16:50.662Z,17.86
2023-09-23T13:20:57.579Z,18.35
2023-09-23T13:25:00.842Z,18.70
2023-09-23T13:29:04.068Z,18.86
2023-09-23T13:33:10.197Z,17.71
2023-09-23T13:37:14.688Z,18.39
2023-09-23T13:41:18.108Z,19.19
2023-09-23T13:45:21.180Z,19.66
2023-09-23T13:49:24.190Z,19.66
2023-09-23T13:53:28.948Z,19.49
2023-09-23T13:57:32.793Z,19.51
2023-09-23T14:01:35.959Z,18.33
2023-09-23T14:05:39.162Z,18.75
2023-09-23T14:09:43.752Z,20.16
2023-09-23T14:13:48.532Z,19.44
2023-09-23T14:17:51.771Z,18.45
2023-09-23T14:21:55.079Z,17.74
2023-09-23T14:25:59.518Z,17.91
2023-09-23T14:30:03.719Z,18.12
2023-09-23T14:34:08.208Z,17.64
2023-09-23T14:38:11.244Z,17.54
2023-09-23T14:42:16.100Z,17.74
2023-09-23T14:46:19.248Z,17.80
2023-09-23T14:50:22.805Z,17.90
2023-09-23T14:54:25.979Z,18.26
2023-09-23T14:58:31.142Z,17.93
2023-09-23T15:02:37.405Z,17.50
2023-09-23T15:06:40.747Z,17.39
2023-09-23T15:10:44.434Z,17.33
2023-09-23T15:14:49.189Z,17.50
2023-09-23T15:18:52.496Z,16.76
2023-09-23T15:22:56.134Z,16.86
2023-09-23T15:27:07.052Z,16.78
2023-09-23T15:31:11.828Z,16.65
2023-09-23T15:35:15.276Z,16.38
2023-09-23T15:39:19.504Z,16.23
2023-09-23T15:43:22.464Z,16.13
2023-09-23T15:47:27.008Z,16.02
2023-09-23T15:51:30.746Z,15.78
2023-09-23T15:55:35.628Z,15.22
2023-09-23T15:59:39.131Z,14.86
2023-09-23T16:03:43.876Z,14.91
2023-09-23T16:07:47.078Z,14.93
2023-09-23T16:11:50.352Z,14.89
2023-09-23T16:15:53.672Z,14.92
2023-09-23T16:19:58.320Z,14.76
2023-09-23T16:24:01.594Z,14.78
2023-09-23T16:28:04.948Z,14.76
2023-09-23T16:32:08.113Z,14.79
2023-09-23T16:36:14.068Z,14.86
2023-09-23T16:40:17.339Z,14.87
2023-09-23T16:44:20.388Z,14.90
2023-09-23T16:48:27.668Z,14.84
2023-09-23T16:52:35.380Z,14.74
2023-09-23T16:56:39.302Z,14.65
2023-09-23T17:00:43.030Z,14.91
2023-09-23T17:04:47.589Z,14.79
2023-09-23T17:08:52.383Z,14.64
2023-09-23T17:12:56.362Z,14.57
2023-09-23T17:16:59.531Z,14.52
2023-09-23T17:21:03.002Z,14.49
2023-09-23T17:25:07.932Z,14.46
2023-09-23T17:29:11.099Z,14.41
2023-09-23T17:33:14.234Z,14.40
2023-09-23T17:37:17.436Z,14.40
2023-09-23T17:41:22.051Z,14.36
2023-09-23T17:45:25.593Z,14.30
2023-09-23T17:49:30.033Z,14.26
2023-09-23T17:53:33.593Z,14.25
2023-09-23T17:57:38.368Z,14.15
2023-09-23T18:01:42.734Z,14.05
2023-09-23T18:05:46.570Z,14.07
2023-09-23T18:09:49.687Z,14.05
2023-09-23T18:13:59.292Z,14.04
2023-09-23T18:18:02.727Z,14.04
2023-09-23T18:22:06.007Z,13.94
2023-09-23T18:26:09.097Z,13.91
2023-09-23T18:30:14.146Z,13.84
2023-09-23T18:34:23.503Z,13.74
2023-09-23T18:38:26.902Z,13.76
2023-09-23T18:42:30.501Z,13.88
2023-09-23T18:46:35.269Z,13.90
2023-09-23T18:50:38.563Z,14.05
2023-09-23T18:54:42.095Z,14.05
2023-09-23T18:58:45.586Z,14.08
2023-09-23T19:02:50.242Z,14.07
2023-09-23T19:06:53.568Z,14.08
2023-09-23T19:10:56.810Z,14.11
2023-09-23T19:15:00.919Z,14.08
2023-09-23T19:19:05.521Z,14.09
2023-09-23T19:23:08.576Z,14.07
2023-09-23T19:27:11.638Z,14.09
2023-09-23T19:31:16.370Z,14.06
2023-09-23T19:35:22.481Z,14.00
2023-09-23T19:39:26.843Z,13.95
2023-09-23T19:43:31.682Z,13.84
2023-09-23T19:47:35.150Z,13.69
2023-09-23T19:51:39.704Z,13.62
2023-09-23T19:55:42.884Z,13.53
2023-09-23T19:59:45.980Z,13.38
2023-09-23T20:03:53.541Z,13.30
2023-09-23T20:07:57.873Z,13.28
2023-09-23T20:12:01.883Z,13.11
2023-09-23T20:16:05.369Z,12.98
2023-09-23T20:20:10.044Z,12.95
2023-09-23T20:24:14.889Z,12.87
2023-09-23T20:28:18.112Z,12.64
2023-09-23T20:32:21.195Z,12.64
2023-09-23T20:36:24.422Z,12.49
2023-09-23T20:40:33.873Z,12.29
2023-09-23T20:44:44.529Z,12.36
2023-09-23T20:49:00.463Z,12.11
2023-09-23T20:53:03.778Z,12.17
2023-09-23T20:57:08.808Z,12.05
2023-09-23T21:01:11.993Z,11.90
2023-09-23T21:05:15.332Z,11.71
2023-09-23T21:09:18.711Z,11.67
2023-09-23T21:13:23.627Z,11.62
2023-09-23T21:17:28.301Z,11.55
2023-09-23T21:21:31.405Z,11.84
2023-09-23T21:25:34.515Z,11.70
2023-09-23T21:29:38.827Z,11.50
2023-09-23T21:33:41.873Z,11.37
2023-09-23T21:37:44.913Z,11.22
2023-09-23T21:41:48.052Z,11.24
2023-09-23T21:45:54.485Z,11.12
2023-09-23T21:49:58.789Z,11.10
2023-09-23T21:54:02.719Z,10.98
2023-09-23T21:58:05.841Z,10.88
2023-09-23T22:02:11.093Z,11.07
2023-09-23T22:06:14.336Z,10.87
2023-09-23T22:10:17.423Z,10.74
2023-09-23T22:14:21.130Z,10.72
2023-09-23T22:18:25.750Z,10.59
2023-09-23T22:22:30.360Z,10.50
2023-09-23T22:26:34.078Z,10.53
2023-09-23T22:30:37.521Z,10.52
2023-09-23T22:34:41.876Z,10.46
2023-09-23T22:38:44.986Z,10.49
2023-09-23T22:42:48.612Z,10.24
2023-09-23T22:46:51.641Z,10.23
2023-09-23T22:50:57.476Z,10.17
2023-09-23T22:55:00.613Z,10.03
2023-09-23T22:59:05.576Z,10.30
2023-09-23T23:03:08.699Z,10.64
2023-09-23T23:07:13.481Z,10.67
2023-09-23T23:11:16.778Z,10.52
2023-09-23T23:15:20.163Z,10.82
2023-09-23T23:19:24.380Z,10.80
2023-09-23T23:23:29.121Z,10.49
2023-09-23T23:27:32.443Z,10.36
2023-09-23T23:31:37.046Z,10.35
2023-09-23T23:35:40.239Z,10.37
2023-09-23T23:39:45.921Z,10.34
2023-09-23T23:43:49.809Z,10.23
2023-09-23T23:47:55.078Z,10.15
2023-09-23T23:51:58.833Z,10.11
2023-09-23T23:56:06.288Z,10.07
